createdAt,value
2018-09-14T00:01:16.394Z,17.90
2018-09-14T00:03:43.916Z,18.00
2018-09-14T00:06:11.449Z,17.90
2018-09-14T00:08:38.962Z,17.90
2018-09-14T00:11:06.525Z,17.90
2018-09-14T00:13:34.142Z,17.90
2018-09-14T00:16:01.716Z,17.90
2018-09-14T00:18:29.411Z,17.90
2018-09-14T00:20:56.965Z,17.90
2018-09-14T00:23:24.409Z,18.00
2018-09-14T00:25:51.997Z,18.00
2018-09-14T00:28:19.534Z,18.00
2018-09-14T00:30:47.139Z,18.00
2018-09-14T00:33:14.722Z,18.00
2018-09-14T00:35:42.262Z,18.00
2018-09-14T00:38:09.813Z,18.00
2018-09-14T00:40:37.388Z,18.00
2018-09-14T00:43:04.972Z,18.00
2018-09-14T00:45:32.578Z,18.00
2018-09-14T00:48:00.127Z,18.00
2018-09-14T00:50:27.659Z,18.00
2018-09-14T00:52:55.216Z,18.00
2018-09-14T00:55:22.808Z,18.00
2018-09-14T00:57:50.373Z,18.00
2018-09-14T01:00:18.030Z,18.00
2018-09-14T01:02:45.547Z,18.00
2018-09-14T01:05:13.113Z,17.90
2018-09-14T01:07:40.679Z,18.00
2018-09-14T01:10:08.261Z,18.00
2018-09-14T01:12:35.853Z,18.00
2018-09-14T01:15:03.473Z,18.00
2018-09-14T01:17:31.014Z,18.00
2018-09-14T01:19:58.615Z,18.00
2018-09-14T01:22:26.156Z,18.00
2018-09-14T01:24:53.704Z,18.00
2018-09-14T01:27:21.243Z,18.00
2018-09-14T01:29:48.819Z,18.00
2018-09-14T01:32:16.412Z,17.90
2018-09-14T01:34:44.074Z,17.90
2018-09-14T01:37:11.667Z,17.90
2018-09-14T01:39:39.205Z,17.80
2018-09-14T01:42:06.829Z,17.90
2018-09-14T01:44:34.363Z,17.90
2018-09-14T01:47:01.915Z,17.90
2018-09-14T01:49:29.473Z,17.90
2018-09-14T01:51:56.996Z,17.90
2018-09-14T01:54:24.537Z,18.00
2018-09-14T01:56:52.061Z,18.00
2018-09-14T01:59:19.613Z,18.00
2018-09-14T02:01:47.229Z,18.00
2018-09-14T02:04:14.781Z,18.10
2018-09-14T02:06:42.415Z,18.10
2018-09-14T02:09:10.720Z,18.10
2018-09-14T02:11:38.249Z,18.10
2018-09-14T02:14:05.851Z,18.10
2018-09-14T02:16:33.385Z,18.00
2018-09-14T02:19:00.962Z,18.00
2018-09-14T02:21:28.525Z,18.00
2018-09-14T02:23:56.061Z,18.00
2018-09-14T02:26:23.623Z,18.00
2018-09-14T02:28:51.183Z,18.00
2018-09-14T02:31:19.206Z,18.00
2018-09-14T02:33:46.729Z,18.00
2018-09-14T02:36:14.251Z,18.00
2018-09-14T02:38:41.877Z,17.90
2018-09-14T02:41:09.412Z,17.90
2018-09-14T02:43:36.960Z,17.90
2018-09-14T02:46:04.623Z,17.80
2018-09-14T02:48:32.225Z,17.80
2018-09-14T02:50:59.794Z,17.70
2018-09-14T02:53:27.370Z,17.70
2018-09-14T02:55:54.977Z,17.60
2018-09-14T02:58:22.529Z,17.50
2018-09-14T03:00:50.471Z,17.50
2018-09-14T03:03:18.025Z,17.40
2018-09-14T03:05:45.561Z,17.30
2018-09-14T03:08:13.121Z,17.30
2018-09-14T03:10:40.671Z,17.20
2018-09-14T03:13:08.333Z,17.10
2018-09-14T03:15:35.853Z,17.00
2018-09-14T03:18:03.389Z,16.90
2018-09-14T03:20:30.933Z,16.90
2018-09-14T03:22:58.516Z,16.80
2018-09-14T03:25:26.059Z,16.70
2018-09-14T03:27:53.593Z,16.70
2018-09-14T03:30:21.127Z,16.50
2018-09-14T03:32:48.768Z,16.40
2018-09-14T03:35:16.348Z,16.30
2018-09-14T03:37:43.913Z,16.20
2018-09-14T03:40:11.432Z,16.10
2018-09-14T03:42:39.062Z,16.00
2018-09-14T03:45:06.695Z,16.00
2018-09-14T03:47:34.228Z,16.00
2018-09-14T03:50:01.773Z,16.00
2018-09-14T03:52:29.306Z,16.00
2018-09-14T03:54:56.848Z,16.00
2018-09-14T03:57:24.423Z,16.00
2018-09-14T03:59:52.024Z,15.90
2018-09-14T04:02:19.576Z,15.90
2018-09-14T04:04:47.110Z,15.90
2018-09-14T04:07:14.688Z,15.80
2018-09-14T04:09:42.305Z,15.80
2018-09-14T04:12:09.832Z,15.70
2018-09-14T04:14:37.366Z,15.70
2018-09-14T04:17:04.932Z,15.70
2018-09-14T04:19:32.501Z,15.70
2018-09-14T04:22:00.042Z,15.70
2018-09-14T04:24:27.603Z,15.70
2018-09-14T04:26:55.120Z,15.60
2018-09-14T04:29:22.696Z,15.70
2018-09-14T04:31:50.235Z,15.70
2018-09-14T04:34:17.810Z,15.70
2018-09-14T04:36:45.403Z,15.60
2018-09-14T04:39:12.921Z,15.60
2018-09-14T04:41:40.481Z,15.60
2018-09-14T04:44:08.054Z,15.60
2018-09-14T04:46:35.651Z,15.60
2018-09-14T04:49:03.232Z,15.50
2018-09-14T04:51:30.816Z,15.50
2018-09-14T04:53:58.303Z,15.50
2018-09-14T04:56:25.868Z,15.50
2018-09-14T04:58:53.436Z,15.50
2018-09-14T05:01:20.939Z,15.40
2018-09-14T05:03:48.484Z,15.40
2018-09-14T05:06:16.106Z,15.40
2018-09-14T05:08:43.680Z,15.30
2018-09-14T05:11:11.196Z,15.30
2018-09-14T05:13:38.853Z,15.20
2018-09-14T05:16:06.405Z,15.20
2018-09-14T05:18:34.028Z,15.20
2018-09-14T05:21:01.643Z,15.20
2018-09-14T05:23:29.202Z,15.30
2018-09-14T05:25:56.725Z,15.30
2018-09-14T05:28:24.641Z,15.40
2018-09-14T05:30:52.427Z,15.40
2018-09-14T05:33:20.183Z,15.50
2018-09-14T05:35:47.971Z,15.50
2018-09-14T05:38:15.561Z,15.50
2018-09-14T05:40:43.099Z,15.60
2018-09-14T05:43:10.693Z,15.50
2018-09-14T05:45:38.274Z,15.50
2018-09-14T05:48:05.781Z,15.50
2018-09-14T05:50:33.395Z,15.50
2018-09-14T05:53:00.936Z,15.60
2018-09-14T05:55:28.526Z,15.70
2018-09-14T05:57:58.511Z,15.70
2018-09-14T06:00:26.327Z,15.60
2018-09-14T06:02:53.897Z,15.70
2018-09-14T06:05:21.444Z,15.70
2018-09-14T06:07:49.000Z,15.80
2018-09-14T06:10:16.539Z,15.90
2018-09-14T06:12:44.079Z,15.90
2018-09-14T06:15:11.630Z,15.80
2018-09-14T06:17:39.195Z,15.90
2018-09-14T06:20:06.831Z,15.90
2018-09-14T06:22:34.358Z,16.00
2018-09-14T06:25:01.935Z,16.20
2018-09-14T06:27:29.553Z,16.20
2018-09-14T06:29:57.091Z,16.10
2018-09-14T06:32:24.642Z,16.10
2018-09-14T06:34:52.185Z,16.20
2018-09-14T06:37:19.733Z,16.50
2018-09-14T06:39:47.341Z,16.70
2018-09-14T06:42:14.869Z,16.70
2018-09-14T06:44:42.446Z,16.60
2018-09-14T06:47:09.948Z,16.60
2018-09-14T06:49:37.537Z,16.70
2018-09-14T06:52:05.161Z,16.70
2018-09-14T06:54:32.726Z,16.70
2018-09-14T06:57:00.250Z,16.80
2018-09-14T06:59:27.793Z,16.90
2018-09-14T07:01:55.361Z,17.00
2018-09-14T07:04:22.937Z,17.00
2018-09-14T07:06:50.503Z,17.00
2018-09-14T07:09:18.060Z,16.90
2018-09-14T07:11:45.587Z,16.80
2018-09-14T07:14:13.276Z,16.80
2018-09-14T07:16:40.786Z,16.80
2018-09-14T07:19:08.423Z,16.80
2018-09-14T07:21:35.981Z,16.80
2018-09-14T07:24:03.524Z,16.80
2018-09-14T07:26:31.143Z,16.90
2018-09-14T07:28:58.773Z,17.00
2018-09-14T07:31:26.295Z,17.00
2018-09-14T07:33:53.800Z,17.10
2018-09-14T07:36:21.413Z,17.10
2018-09-14T07:38:48.911Z,17.20
2018-09-14T07:41:16.436Z,17.20
2018-09-14T07:43:43.970Z,17.20
2018-09-14T07:46:11.536Z,17.20
2018-09-14T07:48:39.098Z,17.20
2018-09-14T07:51:06.655Z,17.20
2018-09-14T07:53:34.215Z,17.30
2018-09-14T07:56:01.806Z,17.50
2018-09-14T07:58:29.379Z,17.50
2018-09-14T08:00:56.945Z,17.60
2018-09-14T08:03:24.539Z,17.70
2018-09-14T08:05:52.085Z,17.80
2018-09-14T08:08:19.681Z,17.80
2018-09-14T08:10:47.221Z,17.90
2018-09-14T08:13:14.812Z,18.10
2018-09-14T08:15:42.307Z,18.20
2018-09-14T08:18:09.955Z,18.30
2018-09-14T08:20:37.495Z,18.30
2018-09-14T08:23:05.092Z,18.20
2018-09-14T08:25:32.706Z,18.10
2018-09-14T08:28:00.302Z,18.00
2018-09-14T08:30:27.883Z,17.90
2018-09-14T08:32:55.465Z,18.00
2018-09-14T08:35:23.065Z,18.00
2018-09-14T08:37:50.643Z,18.00
2018-09-14T08:40:18.225Z,18.00
2018-09-14T08:42:45.785Z,18.00
2018-09-14T08:45:13.368Z,18.10
2018-09-14T08:47:40.890Z,18.10
2018-09-14T08:50:08.433Z,18.10
2018-09-14T08:52:35.984Z,18.20
2018-09-14T08:55:03.647Z,18.20
2018-09-14T08:57:31.278Z,18.30
2018-09-14T08:59:58.813Z,18.30
2018-09-14T09:02:26.344Z,18.30
2018-09-14T09:04:53.983Z,18.40
2018-09-14T09:07:21.618Z,18.40
2018-09-14T09:09:49.114Z,18.40
2018-09-14T09:12:16.765Z,18.50
2018-09-14T09:14:44.329Z,18.60
2018-09-14T09:17:11.975Z,18.60
2018-09-14T09:19:39.605Z,18.60
2018-09-14T09:22:07.168Z,18.60
2018-09-14T09:24:34.737Z,18.70
2018-09-14T09:27:02.303Z,18.70
2018-09-14T09:29:29.892Z,18.80
2018-09-14T09:31:57.544Z,18.70
2018-09-14T09:34:25.080Z,18.70
2018-09-14T09:36:52.739Z,18.60
2018-09-14T09:39:20.315Z,18.50
2018-09-14T09:41:47.825Z,18.50
2018-09-14T09:44:15.365Z,18.30
2018-09-14T09:46:42.912Z,18.30
2018-09-14T09:49:10.651Z,18.10
2018-09-14T09:51:38.251Z,18.10
2018-09-14T09:54:05.843Z,18.00
2018-09-14T09:56:33.531Z,18.00
2018-09-14T09:59:01.145Z,17.90
2018-09-14T10:01:28.861Z,17.80
2018-09-14T10:04:02.345Z,17.70
2018-09-14T10:06:30.006Z,17.60
2018-09-14T10:08:57.757Z,17.50
2018-09-14T10:11:26.045Z,17.40
2018-09-14T10:13:53.697Z,17.40
2018-09-14T10:16:21.291Z,17.40
2018-09-14T10:18:48.841Z,17.40
2018-09-14T10:21:16.561Z,17.30
2018-09-14T10:23:44.012Z,17.40
2018-09-14T10:26:11.774Z,17.40
2018-09-14T10:28:39.306Z,17.40
2018-09-14T10:31:07.147Z,17.50
2018-09-14T10:33:34.634Z,17.60
2018-09-14T10:36:02.349Z,17.70
2018-09-14T10:38:29.896Z,17.80
2018-09-14T10:40:57.447Z,17.90
2018-09-14T10:43:25.081Z,18.00
2018-09-14T10:45:52.700Z,18.20
2018-09-14T10:48:20.283Z,18.20
2018-09-14T10:50:47.834Z,18.30
2018-09-14T10:53:15.396Z,18.30
2018-09-14T10:55:43.094Z,18.30
2018-09-14T10:58:10.637Z,18.30
2018-09-14T11:00:38.171Z,18.20
2018-09-14T11:03:05.751Z,18.10
2018-09-14T11:05:33.294Z,18.00
2018-09-14T11:08:00.830Z,18.00
2018-09-14T11:10:28.382Z,18.00
2018-09-14T11:12:55.977Z,17.90
2018-09-14T11:15:23.649Z,18.00
2018-09-14T11:17:51.220Z,18.00
2018-09-14T11:20:18.843Z,18.00
2018-09-14T11:22:46.392Z,17.90
2018-09-14T11:25:14.028Z,18.00
2018-09-14T11:27:41.522Z,18.20
2018-09-14T11:30:09.277Z,18.50
2018-09-14T11:32:36.848Z,18.70
2018-09-14T11:35:04.555Z,18.80
2018-09-14T11:37:32.176Z,18.90
2018-09-14T11:40:00.924Z,18.90
2018-09-14T11:42:28.855Z,18.90
2018-09-14T11:44:56.524Z,18.90
2018-09-14T11:47:24.270Z,18.90
2018-09-14T11:49:51.842Z,19.00
2018-09-14T11:52:19.401Z,19.00
2018-09-14T11:54:47.042Z,19.00
2018-09-14T11:57:14.590Z,19.10
2018-09-14T11:59:42.157Z,19.10
2018-09-14T12:02:09.732Z,19.00
2018-09-14T12:04:37.307Z,18.90
2018-09-14T12:07:04.892Z,18.80
2018-09-14T12:09:32.503Z,18.70
2018-09-14T12:12:00.062Z,18.60
2018-09-14T12:14:27.653Z,18.60
2018-09-14T12:16:55.313Z,18.60
2018-09-14T12:19:22.897Z,18.60
2018-09-14T12:21:50.502Z,18.70
2018-09-14T12:24:18.091Z,18.80
2018-09-14T12:26:45.667Z,18.90
2018-09-14T12:29:13.259Z,19.10
2018-09-14T12:31:40.818Z,19.30
2018-09-14T12:34:08.420Z,19.40
2018-09-14T12:36:35.995Z,19.60
2018-09-14T12:39:04.415Z,19.70
2018-09-14T12:41:31.951Z,19.80
2018-09-14T12:43:59.533Z,19.80
2018-09-14T12:46:27.179Z,19.80
2018-09-14T12:48:54.726Z,19.70
2018-09-14T12:51:22.323Z,19.60
2018-09-14T12:53:49.882Z,19.60
2018-09-14T12:56:17.500Z,19.80
2018-09-14T12:58:45.145Z,20.60
2018-09-14T13:01:12.690Z,21.40
2018-09-14T13:03:40.256Z,22.10
2018-09-14T13:06:07.851Z,22.40
2018-09-14T13:08:35.409Z,22.50
2018-09-14T13:11:03.035Z,22.50
2018-09-14T13:13:30.594Z,22.50
2018-09-14T13:15:58.237Z,22.50
2018-09-14T13:18:25.804Z,22.80
2018-09-14T13:20:53.393Z,23.40
2018-09-14T13:23:21.002Z,24.10
2018-09-14T13:25:48.581Z,24.40
2018-09-14T13:28:16.175Z,24.30
2018-09-14T13:30:43.735Z,23.80
2018-09-14T13:33:11.304Z,23.30
2018-09-14T13:35:38.846Z,22.80
2018-09-14T13:38:06.405Z,22.20
2018-09-14T13:40:34.018Z,21.90
2018-09-14T13:43:01.621Z,21.80
2018-09-14T13:45:29.186Z,21.80
2018-09-14T13:47:56.792Z,21.90
2018-09-14T13:50:24.323Z,22.40
2018-09-14T13:52:51.940Z,22.80
2018-09-14T13:55:19.450Z,22.90
2018-09-14T13:57:47.088Z,22.80
2018-09-14T14:00:14.767Z,22.90
2018-09-14T14:02:42.407Z,22.80
2018-09-14T14:05:09.977Z,22.50
2018-09-14T14:07:37.654Z,22.40
2018-09-14T14:10:05.366Z,22.50
2018-09-14T14:12:32.936Z,22.60
2018-09-14T14:15:00.524Z,22.70
2018-09-14T14:17:28.257Z,22.70
2018-09-14T14:19:58.752Z,22.70
2018-09-14T14:22:26.279Z,22.70
2018-09-14T14:24:53.875Z,22.60
2018-09-14T14:27:21.475Z,22.50
2018-09-14T14:29:49.330Z,22.50
2018-09-14T14:32:16.903Z,22.50
2018-09-14T14:34:44.478Z,22.60
2018-09-14T14:37:12.393Z,22.70
2018-09-14T14:39:39.967Z,22.70
2018-09-14T14:42:07.604Z,22.90
2018-09-14T14:44:35.371Z,23.40
2018-09-14T14:47:02.990Z,24.20
2018-09-14T14:49:30.625Z,24.40
2018-09-14T14:51:58.268Z,24.30
2018-09-14T14:54:25.867Z,24.60
2018-09-14T14:56:53.415Z,25.00
2018-09-14T14:59:20.980Z,25.70
2018-09-14T15:01:48.520Z,26.00
2018-09-14T15:04:16.188Z,26.30
2018-09-14T15:06:43.846Z,26.40
2018-09-14T15:09:11.427Z,26.40
2018-09-14T15:11:39.264Z,26.50
2018-09-14T15:14:06.821Z,26.60
2018-09-14T15:16:34.479Z,26.90
2018-09-14T15:19:02.121Z,27.00
2018-09-14T15:21:29.851Z,27.00
2018-09-14T15:23:57.482Z,27.00
2018-09-14T15:26:25.097Z,27.00
2018-09-14T15:28:52.703Z,27.10
2018-09-14T15:31:20.374Z,27.00
2018-09-14T15:33:47.991Z,27.10
2018-09-14T15:36:15.608Z,26.80
2018-09-14T15:38:43.234Z,26.80
2018-09-14T15:41:11.108Z,26.80
2018-09-14T15:43:38.769Z,27.00
2018-09-14T15:46:06.354Z,27.00
2018-09-14T15:48:33.913Z,27.10
2018-09-14T15:51:01.612Z,27.30
2018-09-14T15:53:29.286Z,27.40
2018-09-14T15:55:57.005Z,27.50
2018-09-14T15:58:24.817Z,27.30
2018-09-14T16:00:52.393Z,27.20
2018-09-14T16:03:19.959Z,26.90
2018-09-14T16:05:47.549Z,26.20
2018-09-14T16:08:15.136Z,25.50
2018-09-14T16:10:42.706Z,24.60
2018-09-14T16:13:10.300Z,24.10
2018-09-14T16:15:37.914Z,23.90
2018-09-14T16:18:05.616Z,23.50
2018-09-14T16:20:33.230Z,23.30
2018-09-14T16:23:00.860Z,23.20
2018-09-14T16:25:28.455Z,23.30
2018-09-14T16:27:56.023Z,23.60
2018-09-14T16:30:23.572Z,23.70
2018-09-14T16:32:51.421Z,23.60
2018-09-14T16:35:19.116Z,23.20
2018-09-14T16:37:46.741Z,23.00
2018-09-14T16:40:14.372Z,22.80
2018-09-14T16:42:41.957Z,22.70
2018-09-14T16:45:09.544Z,22.60
2018-09-14T16:47:37.086Z,22.50
2018-09-14T16:50:04.737Z,22.30
2018-09-14T16:52:32.348Z,22.00
2018-09-14T16:55:00.160Z,21.80
2018-09-14T16:57:27.748Z,21.60
2018-09-14T16:59:55.309Z,21.40
2018-09-14T17:02:22.877Z,21.20
2018-09-14T17:04:50.458Z,21.00
2018-09-14T17:07:18.114Z,20.90
2018-09-14T17:09:45.657Z,20.70
2018-09-14T17:12:13.360Z,20.50
2018-09-14T17:14:40.992Z,20.40
2018-09-14T17:17:08.642Z,20.20
2018-09-14T17:19:36.229Z,20.10
2018-09-14T17:22:03.839Z,20.00
2018-09-14T17:24:31.461Z,19.80
2018-09-14T17:26:59.049Z,19.70
2018-09-14T17:29:26.734Z,19.60
2018-09-14T17:31:54.459Z,19.40
2018-09-14T17:34:22.109Z,19.30
2018-09-14T17:36:49.769Z,19.20
2018-09-14T17:39:17.994Z,19.20
2018-09-14T17:41:45.653Z,19.20
2018-09-14T17:44:13.289Z,19.20
2018-09-14T17:46:41.292Z,19.10
2018-09-14T17:49:09.058Z,19.10
2018-09-14T17:51:36.692Z,19.00
2018-09-14T17:54:04.345Z,19.00
2018-09-14T17:56:31.981Z,18.90
2018-09-14T17:58:59.669Z,18.80
2018-09-14T18:01:27.341Z,18.60
2018-09-14T18:03:55.041Z,18.50
2018-09-14T18:06:22.711Z,18.40
2018-09-14T18:08:50.479Z,18.30
2018-09-14T18:11:18.183Z,18.30
2018-09-14T18:13:45.895Z,18.30
2018-09-14T18:16:13.573Z,18.20
2018-09-14T18:18:41.328Z,18.10
2018-09-14T18:21:09.144Z,17.90
2018-09-14T18:23:36.856Z,17.80
2018-09-14T18:26:04.525Z,17.70
2018-09-14T18:28:32.414Z,17.60
2018-09-14T18:31:00.215Z,17.50
2018-09-14T18:33:27.951Z,17.50
2018-09-14T18:35:55.829Z,17.40
2018-09-14T18:38:23.524Z,17.40
2018-09-14T18:40:51.456Z,17.30
2018-09-14T18:43:20.244Z,17.20
2018-09-14T18:45:48.581Z,17.10
2018-09-14T18:48:16.570Z,17.10
2018-09-14T18:50:44.588Z,17.00
2018-09-14T18:53:12.596Z,16.90
2018-09-14T18:55:40.461Z,16.90
2018-09-14T18:58:08.127Z,16.80
2018-09-14T19:00:36.055Z,16.80
2018-09-14T19:03:04.127Z,16.70
2018-09-14T19:05:32.240Z,16.60
2018-09-14T19:07:59.996Z,16.50
2018-09-14T19:10:29.380Z,16.50
2018-09-14T19:12:58.372Z,16.40
2018-09-14T19:15:26.132Z,16.40
2018-09-14T19:17:53.799Z,16.40
2018-09-14T19:20:22.570Z,16.40
2018-09-14T19:22:50.323Z,16.30
2018-09-14T19:25:18.320Z,16.30
2018-09-14T19:27:46.657Z,16.30
2018-09-14T19:30:14.468Z,16.30
2018-09-14T19:32:42.187Z,16.20
2018-09-14T19:35:10.912Z,16.20
2018-09-14T19:37:38.999Z,16.10
2018-09-14T19:40:07.046Z,16.10
2018-09-14T19:42:34.751Z,16.10
2018-09-14T19:45:02.514Z,16.10
2018-09-14T19:47:30.199Z,16.10
2018-09-14T19:49:57.906Z,16.00
2018-09-14T19:52:25.845Z,16.00
2018-09-14T19:54:53.688Z,16.10
2018-09-14T19:57:21.488Z,16.10
2018-09-14T19:59:49.563Z,16.10
2018-09-14T20:02:17.481Z,16.10
2018-09-14T20:04:45.208Z,16.10
2018-09-14T20:07:12.876Z,16.20
2018-09-14T20:09:40.645Z,16.20
2018-09-14T20:12:09.130Z,16.20
2018-09-14T20:14:37.011Z,16.20
2018-09-14T20:17:05.662Z,16.20
2018-09-14T20:19:33.471Z,16.20
2018-09-14T20:22:01.201Z,16.30
2018-09-14T20:24:28.845Z,16.30
2018-09-14T20:26:56.558Z,16.30
2018-09-14T20:29:24.350Z,16.30
2018-09-14T20:31:52.372Z,16.30
2018-09-14T20:34:20.057Z,16.20
2018-09-14T20:36:47.756Z,16.20
2018-09-14T20:39:15.464Z,16.20
2018-09-14T20:41:43.075Z,16.30
2018-09-14T20:44:10.750Z,16.30
2018-09-14T20:46:38.453Z,16.30
2018-09-14T20:49:06.125Z,16.30
2018-09-14T20:51:33.894Z,16.30
2018-09-14T20:54:01.540Z,16.20
2018-09-14T20:56:29.305Z,16.20
2018-09-14T20:58:56.994Z,16.30
2018-09-14T21:01:24.574Z,16.20
2018-09-14T21:03:52.938Z,16.30
2018-09-14T21:06:20.594Z,16.30
2018-09-14T21:08:48.331Z,16.30
2018-09-14T21:11:16.069Z,16.30
2018-09-14T21:13:43.675Z,16.30
2018-09-14T21:16:11.268Z,16.30
2018-09-14T21:18:38.876Z,16.20
2018-09-14T21:21:06.541Z,16.30
2018-09-14T21:23:34.116Z,16.20
2018-09-14T21:26:01.795Z,16.20
2018-09-14T21:28:29.426Z,16.20
2018-09-14T21:30:57.071Z,16.20
2018-09-14T21:33:24.653Z,16.20
2018-09-14T21:35:52.212Z,16.20
2018-09-14T21:38:19.813Z,16.20
2018-09-14T21:40:47.426Z,16.10
2018-09-14T21:43:15.036Z,16.10
2018-09-14T21:45:42.721Z,16.00
2018-09-14T21:48:10.386Z,16.00
2018-09-14T21:50:37.924Z,15.90
2018-09-14T21:53:05.675Z,15.90
2018-09-14T21:55:33.271Z,15.90
2018-09-14T21:58:00.823Z,15.80
2018-09-14T22:00:34.045Z,15.80
2018-09-14T22:03:01.596Z,15.70
2018-09-14T22:05:29.167Z,15.70
2018-09-14T22:07:56.739Z,15.70
2018-09-14T22:10:24.325Z,15.60
2018-09-14T22:12:51.891Z,15.60
2018-09-14T22:15:19.447Z,15.60
2018-09-14T22:17:46.987Z,15.50
2018-09-14T22:20:14.532Z,15.50
2018-09-14T22:22:42.104Z,15.40
2018-09-14T22:25:09.635Z,15.40
2018-09-14T22:27:37.213Z,15.30
2018-09-14T22:30:05.703Z,15.30
2018-09-14T22:32:33.272Z,15.30
2018-09-14T22:35:00.824Z,15.20
2018-09-14T22:37:28.342Z,15.20
2018-09-14T22:39:55.889Z,15.20
2018-09-14T22:42:23.431Z,15.20
2018-09-14T22:44:51.041Z,15.20
2018-09-14T22:47:18.607Z,15.10
2018-09-14T22:49:46.133Z,15.10
2018-09-14T22:52:13.683Z,15.10
2018-09-14T22:54:41.202Z,15.10
2018-09-14T22:57:08.747Z,15.10
2018-09-14T22:59:36.297Z,15.10
2018-09-14T23:02:03.861Z,15.10
2018-09-14T23:04:31.408Z,15.00
2018-09-14T23:06:59.021Z,15.00
2018-09-14T23:09:26.623Z,14.90
2018-09-14T23:11:54.144Z,14.90
2018-09-14T23:14:21.704Z,14.90
2018-09-14T23:16:49.534Z,14.80
2018-09-14T23:19:17.096Z,14.80
2018-09-14T23:21:44.686Z,14.80
2018-09-14T23:24:12.233Z,14.70
2018-09-14T23:26:39.827Z,14.70
2018-09-14T23:29:07.444Z,14.70
2018-09-14T23:31:34.985Z,14.60
2018-09-14T23:34:02.526Z,14.60
2018-09-14T23:36:30.061Z,14.60
2018-09-14T23:38:57.605Z,14.60
2018-09-14T23:41:25.177Z,14.60
2018-09-14T23:43:52.737Z,14.60
2018-09-14T23:46:20.265Z,14.50
2018-09-14T23:48:47.851Z,14.50
2018-09-14T23:51:15.433Z,14.40
2018-09-14T23:53:43.073Z,14.40
2018-09-14T23:56:10.621Z,14.40
2018-09-14T23:58:38.175Z,14.40
